sensor_id;sensor_type;location;lat;lon;timestamp;pressure;altitude;pressure_sealevel;temperature;humidity
75551;BME280;65071;53.082;18.218;2022-12-07T00:01:24;100564.02;;;3.13;85.16
75551;BME280;65071;53.082;18.218;2022-12-07T00:03:53;100564.19;;;3.11;85.17
75551;BME280;65071;53.082;18.218;2022-12-07T00:06:20;100561.57;;;3.08;85.06
75551;BME280;65071;53.082;18.218;2022-12-07T00:08:47;100562.79;;;3.03;84.94
75551;BME280;65071;53.082;18.218;2022-12-07T00:11:19;100561.91;;;2.98;84.90
75551;BME280;65071;53.082;18.218;2022-12-07T00:13:47;100561.08;;;2.95;85.18
75551;BME280;65071;53.082;18.218;2022-12-07T00:16:15;100555.77;;;2.95;85.01
75551;BME280;65071;53.082;18.218;2022-12-07T00:18:42;100555.77;;;2.92;85.13
75551;BME280;65071;53.082;18.218;2022-12-07T00:21:11;100554.40;;;2.92;85.10
75551;BME280;65071;53.082;18.218;2022-12-07T00:23:38;100553.50;;;2.92;85.09
75551;BME280;65071;53.082;18.218;2022-12-07T00:28:31;100548.24;;;2.90;85.16
75551;BME280;65071;53.082;18.218;2022-12-07T00:31:02;100548.12;;;2.87;85.23
75551;BME280;65071;53.082;18.218;2022-12-07T00:33:28;100547.36;;;2.86;85.18
75551;BME280;65071;53.082;18.218;2022-12-07T00:35:58;100548.62;;;2.83;84.75
75551;BME280;65071;53.082;18.218;2022-12-07T00:38:24;100545.88;;;2.79;84.97
75551;BME280;65071;53.082;18.218;2022-12-07T00:41:01;100543.05;;;2.81;85.02
75551;BME280;65071;53.082;18.218;2022-12-07T00:43:28;100543.36;;;2.82;85.13
75551;BME280;65071;53.082;18.218;2022-12-07T00:45:54;100543.38;;;2.84;85.29
75551;BME280;65071;53.082;18.218;2022-12-07T00:48:21;100541.84;;;2.86;85.24
75551;BME280;65071;53.082;18.218;2022-12-07T00:50:47;100540.33;;;2.82;85.48
75551;BME280;65071;53.082;18.218;2022-12-07T00:53:14;100542.30;;;2.82;85.00
75551;BME280;65071;53.082;18.218;2022-12-07T00:55:41;100542.95;;;2.80;85.23
75551;BME280;65071;53.082;18.218;2022-12-07T00:58:08;100536.33;;;2.76;85.55
75551;BME280;65071;53.082;18.218;2022-12-07T01:00:38;100536.14;;;2.76;85.14
75551;BME280;65071;53.082;18.218;2022-12-07T01:03:06;100533.05;;;2.80;85.26
75551;BME280;65071;53.082;18.218;2022-12-07T01:05:33;100530.66;;;2.83;85.17
75551;BME280;65071;53.082;18.218;2022-12-07T01:07:59;100528.27;;;2.82;85.38
75551;BME280;65071;53.082;18.218;2022-12-07T01:10:27;100527.18;;;2.85;85.64
75551;BME280;65071;53.082;18.218;2022-12-07T01:12:53;100527.82;;;2.86;85.42
75551;BME280;65071;53.082;18.218;2022-12-07T01:15:19;100526.86;;;2.87;85.42
75551;BME280;65071;53.082;18.218;2022-12-07T01:17:45;100525.12;;;2.88;85.58
75551;BME280;65071;53.082;18.218;2022-12-07T01:20:12;100523.81;;;2.92;85.74
75551;BME280;65071;53.082;18.218;2022-12-07T01:22:39;100520.94;;;2.90;85.51
75551;BME280;65071;53.082;18.218;2022-12-07T01:25:07;100522.35;;;2.87;85.61
75551;BME280;65071;53.082;18.218;2022-12-07T01:27:33;100516.30;;;2.90;85.73
75551;BME280;65071;53.082;18.218;2022-12-07T01:30:00;100515.87;;;2.97;85.78
75551;BME280;65071;53.082;18.218;2022-12-07T01:32:27;100513.67;;;2.98;85.64
75551;BME280;65071;53.082;18.218;2022-12-07T01:34:53;100511.77;;;2.99;85.56
75551;BME280;65071;53.082;18.218;2022-12-07T01:37:19;100504.92;;;3.03;85.49
75551;BME280;65071;53.082;18.218;2022-12-07T01:39:48;100499.81;;;3.07;85.80
75551;BME280;65071;53.082;18.218;2022-12-07T01:42:14;100499.58;;;3.08;85.65
75551;BME280;65071;53.082;18.218;2022-12-07T01:47:48;100493.64;;;3.04;85.83
75551;BME280;65071;53.082;18.218;2022-12-07T01:50:17;100493.10;;;3.02;85.87
75551;BME280;65071;53.082;18.218;2022-12-07T01:52:44;100492.91;;;3.02;85.47
75551;BME280;65071;53.082;18.218;2022-12-07T01:55:17;100488.32;;;3.02;85.44
75551;BME280;65071;53.082;18.218;2022-12-07T01:57:47;100485.75;;;3.03;85.43
75551;BME280;65071;53.082;18.218;2022-12-07T02:00:15;100483.09;;;3.03;85.70
75551;BME280;65071;53.082;18.218;2022-12-07T02:03:09;100478.59;;;3.03;85.59
75551;BME280;65071;53.082;18.218;2022-12-07T02:05:38;100475.20;;;3.04;85.83
75551;BME280;65071;53.082;18.218;2022-12-07T02:08:07;100470.92;;;3.06;85.60
75551;BME280;65071;53.082;18.218;2022-12-07T02:10:33;100467.14;;;3.07;85.63
75551;BME280;65071;53.082;18.218;2022-12-07T02:13:05;100463.17;;;3.05;85.64
75551;BME280;65071;53.082;18.218;2022-12-07T02:20:57;100456.16;;;2.95;85.62
75551;BME280;65071;53.082;18.218;2022-12-07T02:31:48;100456.22;;;3.03;85.68
75551;BME280;65071;53.082;18.218;2022-12-07T02:34:28;100456.76;;;3.06;85.85
75551;BME280;65071;53.082;18.218;2022-12-07T02:37:01;100461.27;;;3.07;85.66
75551;BME280;65071;53.082;18.218;2022-12-07T02:39:54;100453.81;;;3.04;85.55
75551;BME280;65071;53.082;18.218;2022-12-07T02:42:29;100452.69;;;3.03;85.75
75551;BME280;65071;53.082;18.218;2022-12-07T02:44:57;100450.65;;;3.02;85.61
75551;BME280;65071;53.082;18.218;2022-12-07T02:47:24;100449.09;;;3.06;85.58
75551;BME280;65071;53.082;18.218;2022-12-07T02:49:52;100450.61;;;3.07;85.76
75551;BME280;65071;53.082;18.218;2022-12-07T02:52:18;100448.79;;;3.08;85.75
75551;BME280;65071;53.082;18.218;2022-12-07T02:54:44;100445.88;;;3.11;85.70
75551;BME280;65071;53.082;18.218;2022-12-07T03:13:01;100443.96;;;3.10;86.05
75551;BME280;65071;53.082;18.218;2022-12-07T03:15:37;100442.34;;;3.13;86.33
75551;BME280;65071;53.082;18.218;2022-12-07T03:18:07;100443.41;;;3.13;86.39
75551;BME280;65071;53.082;18.218;2022-12-07T03:20:36;100438.65;;;3.10;86.40
75551;BME280;65071;53.082;18.218;2022-12-07T03:23:06;100436.02;;;3.10;86.39
75551;BME280;65071;53.082;18.218;2022-12-07T03:25:40;100438.42;;;3.13;86.41
75551;BME280;65071;53.082;18.218;2022-12-07T03:28:07;100432.15;;;3.19;86.53
75551;BME280;65071;53.082;18.218;2022-12-07T03:30:43;100428.81;;;3.20;86.42
75551;BME280;65071;53.082;18.218;2022-12-07T03:33:17;100429.80;;;3.21;86.55
75551;BME280;65071;53.082;18.218;2022-12-07T03:36:04;100427.98;;;3.19;86.51
75551;BME280;65071;53.082;18.218;2022-12-07T03:38:40;100428.38;;;3.19;86.66
75551;BME280;65071;53.082;18.218;2022-12-07T03:41:12;100429.64;;;3.19;86.57
75551;BME280;65071;53.082;18.218;2022-12-07T03:43:41;100420.59;;;3.21;86.54
75551;BME280;65071;53.082;18.218;2022-12-07T03:49:11;100420.27;;;3.23;86.75
75551;BME280;65071;53.082;18.218;2022-12-07T03:54:24;100410.27;;;3.26;86.34
75551;BME280;65071;53.082;18.218;2022-12-07T03:56:53;100410.66;;;3.26;86.72
75551;BME280;65071;53.082;18.218;2022-12-07T03:59:20;100414.60;;;3.22;86.41
75551;BME280;65071;53.082;18.218;2022-12-07T04:02:02;100412.50;;;3.24;86.39
75551;BME280;65071;53.082;18.218;2022-12-07T04:04:28;100411.66;;;3.28;86.46
75551;BME280;65071;53.082;18.218;2022-12-07T04:06:55;100406.98;;;3.27;86.37
75551;BME280;65071;53.082;18.218;2022-12-07T04:09:21;100406.39;;;3.28;86.34
75551;BME280;65071;53.082;18.218;2022-12-07T04:11:47;100402.85;;;3.30;86.50
75551;BME280;65071;53.082;18.218;2022-12-07T04:14:13;100406.48;;;3.29;86.62
75551;BME280;65071;53.082;18.218;2022-12-07T04:16:53;100406.04;;;3.25;86.49
75551;BME280;65071;53.082;18.218;2022-12-07T04:19:26;100402.61;;;3.23;86.12
75551;BME280;65071;53.082;18.218;2022-12-07T04:21:54;100403.21;;;3.25;86.24
75551;BME280;65071;53.082;18.218;2022-12-07T04:24:20;100399.79;;;3.26;86.33
75551;BME280;65071;53.082;18.218;2022-12-07T04:26:47;100396.05;;;3.23;86.37
75551;BME280;65071;53.082;18.218;2022-12-07T04:29:14;100397.70;;;3.25;86.12
75551;BME280;65071;53.082;18.218;2022-12-07T04:31:41;100399.77;;;3.21;86.23
75551;BME280;65071;53.082;18.218;2022-12-07T04:34:07;100397.02;;;3.20;86.15
75551;BME280;65071;53.082;18.218;2022-12-07T04:36:34;100397.55;;;3.16;86.14
75551;BME280;65071;53.082;18.218;2022-12-07T04:39:01;100397.70;;;3.11;86.30
75551;BME280;65071;53.082;18.218;2022-12-07T04:41:27;100401.48;;;3.08;85.90
75551;BME280;65071;53.082;18.218;2022-12-07T04:43:58;100401.60;;;3.05;86.21
75551;BME280;65071;53.082;18.218;2022-12-07T04:46:26;100403.88;;;3.02;86.27
75551;BME280;65071;53.082;18.218;2022-12-07T04:48:53;100402.93;;;2.98;86.16
75551;BME280;65071;53.082;18.218;2022-12-07T04:51:25;100395.33;;;2.98;86.19
75551;BME280;65071;53.082;18.218;2022-12-07T04:53:51;100397.11;;;2.98;86.21
75551;BME280;65071;53.082;18.218;2022-12-07T04:56:18;100394.49;;;3.00;86.42
75551;BME280;65071;53.082;18.218;2022-12-07T04:58:45;100392.77;;;3.02;86.27
75551;BME280;65071;53.082;18.218;2022-12-07T05:01:13;100392.86;;;2.98;86.31
75551;BME280;65071;53.082;18.218;2022-12-07T05:03:39;100394.36;;;2.92;86.30
75551;BME280;65071;53.082;18.218;2022-12-07T05:06:05;100392.28;;;2.88;85.94
75551;BME280;65071;53.082;18.218;2022-12-07T05:08:33;100389.34;;;2.82;86.06
75551;BME280;65071;53.082;18.218;2022-12-07T05:10:59;100380.27;;;2.76;86.12
75551;BME280;65071;53.082;18.218;2022-12-07T05:13:26;100380.45;;;2.71;86.28
75551;BME280;65071;53.082;18.218;2022-12-07T05:15:52;100377.91;;;2.65;86.28
75551;BME280;65071;53.082;18.218;2022-12-07T05:18:18;100380.23;;;2.57;86.37
75551;BME280;65071;53.082;18.218;2022-12-07T05:20:44;100378.73;;;2.49;85.97
75551;BME280;65071;53.082;18.218;2022-12-07T05:23:10;100380.58;;;2.43;86.32
75551;BME280;65071;53.082;18.218;2022-12-07T05:25:37;100380.98;;;2.40;85.98
75551;BME280;65071;53.082;18.218;2022-12-07T05:28:05;100379.80;;;2.36;86.31
75551;BME280;65071;53.082;18.218;2022-12-07T05:30:31;100378.16;;;2.30;86.25
75551;BME280;65071;53.082;18.218;2022-12-07T05:32:58;100378.59;;;2.24;85.95
75551;BME280;65071;53.082;18.218;2022-12-07T05:35:24;100384.75;;;2.20;86.20
75551;BME280;65071;53.082;18.218;2022-12-07T05:37:50;100384.38;;;2.20;85.97
75551;BME280;65071;53.082;18.218;2022-12-07T05:40:16;100382.56;;;2.20;85.91
75551;BME280;65071;53.082;18.218;2022-12-07T05:42:44;100382.63;;;2.22;85.94
75551;BME280;65071;53.082;18.218;2022-12-07T05:45:10;100382.73;;;2.21;85.92
75551;BME280;65071;53.082;18.218;2022-12-07T05:47:37;100382.70;;;2.19;85.59
75551;BME280;65071;53.082;18.218;2022-12-07T05:50:05;100388.33;;;2.14;85.78
75551;BME280;65071;53.082;18.218;2022-12-07T05:52:31;100386.41;;;2.11;85.40
75551;BME280;65071;53.082;18.218;2022-12-07T05:54:57;100386.04;;;2.11;85.37
75551;BME280;65071;53.082;18.218;2022-12-07T05:57:23;100392.27;;;2.11;85.25
75551;BME280;65071;53.082;18.218;2022-12-07T05:59:50;100393.02;;;2.11;85.52
75551;BME280;65071;53.082;18.218;2022-12-07T06:02:16;100395.11;;;2.09;85.43
75551;BME280;65071;53.082;18.218;2022-12-07T06:04:44;100394.85;;;2.05;85.49
75551;BME280;65071;53.082;18.218;2022-12-07T06:07:13;100397.61;;;2.01;85.57
75551;BME280;65071;53.082;18.218;2022-12-07T06:09:39;100396.23;;;2.01;85.53
75551;BME280;65071;53.082;18.218;2022-12-07T06:12:06;100390.80;;;1.95;85.33
75551;BME280;65071;53.082;18.218;2022-12-07T06:14:53;100391.69;;;1.95;85.53
75551;BME280;65071;53.082;18.218;2022-12-07T06:17:19;100390.50;;;1.94;85.32
75551;BME280;65071;53.082;18.218;2022-12-07T06:19:45;100396.55;;;1.94;85.36
75551;BME280;65071;53.082;18.218;2022-12-07T06:22:11;100398.13;;;1.94;85.32
75551;BME280;65071;53.082;18.218;2022-12-07T06:24:37;100398.56;;;1.90;85.33
75551;BME280;65071;53.082;18.218;2022-12-07T06:27:04;100399.30;;;1.87;85.44
75551;BME280;65071;53.082;18.218;2022-12-07T06:29:30;100396.90;;;1.84;85.27
75551;BME280;65071;53.082;18.218;2022-12-07T06:31:56;100398.36;;;1.86;85.43
75551;BME280;65071;53.082;18.218;2022-12-07T06:34:23;100398.45;;;1.89;85.19
75551;BME280;65071;53.082;18.218;2022-12-07T06:36:50;100398.38;;;1.85;85.30
75551;BME280;65071;53.082;18.218;2022-12-07T06:39:19;100400.45;;;1.86;85.32
75551;BME280;65071;53.082;18.218;2022-12-07T06:41:46;100402.36;;;1.89;85.37
75551;BME280;65071;53.082;18.218;2022-12-07T06:44:13;100402.55;;;1.89;85.25
75551;BME280;65071;53.082;18.218;2022-12-07T06:46:39;100402.23;;;1.86;85.30
75551;BME280;65071;53.082;18.218;2022-12-07T06:49:05;100405.32;;;1.85;85.16
75551;BME280;65071;53.082;18.218;2022-12-07T06:51:33;100399.52;;;1.89;84.99
75551;BME280;65071;53.082;18.218;2022-12-07T06:54:01;100397.85;;;1.85;85.50
75551;BME280;65071;53.082;18.218;2022-12-07T06:56:27;100400.56;;;1.85;84.98
75551;BME280;65071;53.082;18.218;2022-12-07T06:58:54;100404.17;;;1.78;85.03
75551;BME280;65071;53.082;18.218;2022-12-07T07:01:20;100398.30;;;1.71;85.08
75551;BME280;65071;53.082;18.218;2022-12-07T07:03:46;100401.55;;;1.63;85.08
75551;BME280;65071;53.082;18.218;2022-12-07T07:06:13;100397.30;;;1.61;84.89
75551;BME280;65071;53.082;18.218;2022-12-07T07:09:41;100397.14;;;1.63;85.14
75551;BME280;65071;53.082;18.218;2022-12-07T07:12:07;100396.70;;;1.61;85.34
75551;BME280;65071;53.082;18.218;2022-12-07T07:14:34;100397.92;;;1.59;85.13
75551;BME280;65071;53.082;18.218;2022-12-07T07:17:01;100402.97;;;1.63;85.37
75551;BME280;65071;53.082;18.218;2022-12-07T07:19:28;100400.66;;;1.63;84.99
75551;BME280;65071;53.082;18.218;2022-12-07T07:21:56;100400.85;;;1.63;85.14
75551;BME280;65071;53.082;18.218;2022-12-07T07:24:23;100395.48;;;1.61;85.20
75551;BME280;65071;53.082;18.218;2022-12-07T07:26:49;100396.60;;;1.61;85.35
75551;BME280;65071;53.082;18.218;2022-12-07T07:29:16;100397.40;;;1.61;84.92
75551;BME280;65071;53.082;18.218;2022-12-07T07:31:42;100396.20;;;1.66;84.98
75551;BME280;65071;53.082;18.218;2022-12-07T07:34:09;100398.66;;;1.64;84.80
75551;BME280;65071;53.082;18.218;2022-12-07T07:36:36;100397.69;;;1.65;85.15
75551;BME280;65071;53.082;18.218;2022-12-07T07:39:03;100392.05;;;1.72;84.89
75551;BME280;65071;53.082;18.218;2022-12-07T07:41:30;100388.88;;;1.72;84.96
75551;BME280;65071;53.082;18.218;2022-12-07T07:43:57;100387.94;;;1.73;84.76
75551;BME280;65071;53.082;18.218;2022-12-07T07:46:24;100391.23;;;1.76;84.84
75551;BME280;65071;53.082;18.218;2022-12-07T07:48:50;100392.11;;;1.79;84.72
75551;BME280;65071;53.082;18.218;2022-12-07T07:51:17;100391.80;;;1.88;84.55
75551;BME280;65071;53.082;18.218;2022-12-07T07:53:43;100393.89;;;2.01;84.38
75551;BME280;65071;53.082;18.218;2022-12-07T07:56:10;100388.92;;;2.13;84.58
75551;BME280;65071;53.082;18.218;2022-12-07T07:58:37;100392.47;;;2.21;84.55
75551;BME280;65071;53.082;18.218;2022-12-07T08:01:07;100388.41;;;2.26;84.24
75551;BME280;65071;53.082;18.218;2022-12-07T08:03:34;100392.94;;;2.32;84.29
75551;BME280;65071;53.082;18.218;2022-12-07T08:06:02;100393.41;;;2.42;84.55
75551;BME280;65071;53.082;18.218;2022-12-07T08:08:30;100394.06;;;2.48;84.15
75551;BME280;65071;53.082;18.218;2022-12-07T08:10:57;100392.66;;;2.57;84.10
75551;BME280;65071;53.082;18.218;2022-12-07T08:13:26;100393.16;;;2.65;83.52
75551;BME280;65071;53.082;18.218;2022-12-07T08:15:53;100391.78;;;2.69;83.48
75551;BME280;65071;53.082;18.218;2022-12-07T08:18:20;100388.42;;;2.85;83.44
75551;BME280;65071;53.082;18.218;2022-12-07T08:20:46;100382.27;;;2.94;83.46
75551;BME280;65071;53.082;18.218;2022-12-07T08:23:13;100380.00;;;3.01;83.22
75551;BME280;65071;53.082;18.218;2022-12-07T08:25:40;100381.51;;;3.02;82.81
75551;BME280;65071;53.082;18.218;2022-12-07T08:28:07;100380.10;;;3.02;83.04
75551;BME280;65071;53.082;18.218;2022-12-07T08:30:34;100377.36;;;3.08;83.09
75551;BME280;65071;53.082;18.218;2022-12-07T08:33:01;100377.52;;;3.13;82.66
75551;BME280;65071;53.082;18.218;2022-12-07T08:35:27;100372.98;;;3.25;81.92
75551;BME280;65071;53.082;18.218;2022-12-07T08:37:54;100371.52;;;3.44;82.21
75551;BME280;65071;53.082;18.218;2022-12-07T08:40:21;100366.88;;;3.62;82.17
75551;BME280;65071;53.082;18.218;2022-12-07T08:42:49;100368.42;;;3.75;82.00
75551;BME280;65071;53.082;18.218;2022-12-07T08:45:18;100367.30;;;3.91;81.21
75551;BME280;65071;53.082;18.218;2022-12-07T08:47:53;100368.95;;;4.15;81.43
75551;BME280;65071;53.082;18.218;2022-12-07T08:50:22;100369.45;;;4.13;80.04
75551;BME280;65071;53.082;18.218;2022-12-07T08:52:52;100369.68;;;4.03;80.83
75551;BME280;65071;53.082;18.218;2022-12-07T08:55:20;100368.48;;;3.92;80.97
75551;BME280;65071;53.082;18.218;2022-12-07T08:57:47;100364.77;;;3.85;81.19
75551;BME280;65071;53.082;18.218;2022-12-07T09:00:15;100364.93;;;3.74;80.86
75551;BME280;65071;53.082;18.218;2022-12-07T09:02:44;100358.14;;;3.58;81.31
75551;BME280;65071;53.082;18.218;2022-12-07T09:05:12;100359.80;;;3.51;81.52
75551;BME280;65071;53.082;18.218;2022-12-07T09:07:41;100358.06;;;3.32;81.43
75551;BME280;65071;53.082;18.218;2022-12-07T09:10:09;100351.50;;;3.21;81.55
75551;BME280;65071;53.082;18.218;2022-12-07T09:12:36;100349.30;;;3.10;81.34
75551;BME280;65071;53.082;18.218;2022-12-07T09:15:03;100349.24;;;3.06;81.66
75551;BME280;65071;53.082;18.218;2022-12-07T09:17:32;100344.05;;;3.09;81.85
75551;BME280;65071;53.082;18.218;2022-12-07T09:19:59;100343.86;;;3.09;81.81
75551;BME280;65071;53.082;18.218;2022-12-07T09:22:30;100340.19;;;3.08;81.88
75551;BME280;65071;53.082;18.218;2022-12-07T09:24:58;100340.02;;;3.08;81.92
75551;BME280;65071;53.082;18.218;2022-12-07T09:27:26;100334.69;;;3.15;81.85
75551;BME280;65071;53.082;18.218;2022-12-07T09:29:53;100332.95;;;3.26;81.98
75551;BME280;65071;53.082;18.218;2022-12-07T09:32:20;100326.91;;;3.35;81.47
75551;BME280;65071;53.082;18.218;2022-12-07T09:34:47;100321.17;;;3.45;81.76
75551;BME280;65071;53.082;18.218;2022-12-07T09:37:14;100318.26;;;3.55;81.61
75551;BME280;65071;53.082;18.218;2022-12-07T09:39:41;100317.30;;;3.60;81.56
75551;BME280;65071;53.082;18.218;2022-12-07T09:42:08;100316.17;;;3.63;81.75
75551;BME280;65071;53.082;18.218;2022-12-07T09:44:39;100315.41;;;3.63;81.07
75551;BME280;65071;53.082;18.218;2022-12-07T09:47:09;100312.48;;;3.58;81.37
75551;BME280;65071;53.082;18.218;2022-12-07T09:49:36;100308.98;;;3.61;81.23
75551;BME280;65071;53.082;18.218;2022-12-07T09:52:25;100310.43;;;3.66;81.07
75551;BME280;65071;53.082;18.218;2022-12-07T09:54:53;100309.11;;;3.72;80.98
75551;BME280;65071;53.082;18.218;2022-12-07T09:57:27;100301.47;;;3.78;81.26
75551;BME280;65071;53.082;18.218;2022-12-07T10:00:00;100293.08;;;3.81;80.95
75551;BME280;65071;53.082;18.218;2022-12-07T10:02:37;100291.71;;;3.71;80.76
75551;BME280;65071;53.082;18.218;2022-12-07T10:05:07;100290.21;;;3.70;81.01
75551;BME280;65071;53.082;18.218;2022-12-07T10:07:33;100291.17;;;3.71;80.48
75551;BME280;65071;53.082;18.218;2022-12-07T10:10:13;100283.52;;;3.62;80.96
75551;BME280;65071;53.082;18.218;2022-12-07T10:13:03;100284.02;;;3.56;81.00
75551;BME280;65071;53.082;18.218;2022-12-07T10:20:48;100278.05;;;3.48;81.09
75551;BME280;65071;53.082;18.218;2022-12-07T10:23:17;100276.45;;;3.53;81.17
75551;BME280;65071;53.082;18.218;2022-12-07T10:25:44;100274.41;;;3.49;80.84
75551;BME280;65071;53.082;18.218;2022-12-07T10:28:17;100275.57;;;3.39;80.75
75551;BME280;65071;53.082;18.218;2022-12-07T10:31:03;100271.46;;;3.35;81.09
75551;BME280;65071;53.082;18.218;2022-12-07T10:33:54;100266.01;;;3.34;80.95
75551;BME280;65071;53.082;18.218;2022-12-07T10:36:36;100262.57;;;3.39;81.11
75551;BME280;65071;53.082;18.218;2022-12-07T10:39:14;100254.89;;;3.38;81.14
75551;BME280;65071;53.082;18.218;2022-12-07T10:41:59;100251.98;;;3.36;80.88
75551;BME280;65071;53.082;18.218;2022-12-07T10:44:31;100254.05;;;3.30;80.76
75551;BME280;65071;53.082;18.218;2022-12-07T10:47:22;100252.36;;;3.29;80.69
75551;BME280;65071;53.082;18.218;2022-12-07T11:01:09;100234.38;;;3.32;81.00
75551;BME280;65071;53.082;18.218;2022-12-07T11:06:30;100223.31;;;3.48;81.04
75551;BME280;65071;53.082;18.218;2022-12-07T11:12:01;100223.39;;;3.47;80.90
75551;BME280;65071;53.082;18.218;2022-12-07T11:17:33;100216.60;;;3.43;81.14
75551;BME280;65071;53.082;18.218;2022-12-07T11:20:12;100217.42;;;3.53;81.09
75551;BME280;65071;53.082;18.218;2022-12-07T11:23:01;100214.61;;;3.48;81.43
75551;BME280;65071;53.082;18.218;2022-12-07T11:36:44;100196.35;;;3.38;81.13
75551;BME280;65071;53.082;18.218;2022-12-07T11:39:35;100193.30;;;3.34;81.83
75551;BME280;65071;53.082;18.218;2022-12-07T11:42:19;100189.70;;;3.31;81.52
75551;BME280;65071;53.082;18.218;2022-12-07T11:45:17;100190.37;;;3.22;81.75
75551;BME280;65071;53.082;18.218;2022-12-07T11:47:55;100184.89;;;3.13;81.67
75551;BME280;65071;53.082;18.218;2022-12-07T11:53:18;100178.63;;;3.09;81.83
75551;BME280;65071;53.082;18.218;2022-12-07T11:55:54;100173.35;;;3.09;82.00
75551;BME280;65071;53.082;18.218;2022-12-07T12:00:36;100170.52;;;3.04;82.41
75551;BME280;65071;53.082;18.218;2022-12-07T12:03:10;100169.71;;;3.01;82.27
75551;BME280;65071;53.082;18.218;2022-12-07T12:05:39;100167.13;;;3.04;82.23
75551;BME280;65071;53.082;18.218;2022-12-07T12:08:16;100163.98;;;3.08;82.26
75551;BME280;65071;53.082;18.218;2022-12-07T12:11:08;100161.94;;;3.11;82.03
75551;BME280;65071;53.082;18.218;2022-12-07T12:14:11;100162.55;;;3.06;82.06
75551;BME280;65071;53.082;18.218;2022-12-07T12:22:18;100162.27;;;3.05;81.97
75551;BME280;65071;53.082;18.218;2022-12-07T12:24:51;100160.13;;;3.05;81.87
75551;BME280;65071;53.082;18.218;2022-12-07T12:27:45;100159.58;;;3.07;82.32
75551;BME280;65071;53.082;18.218;2022-12-07T12:30:38;100160.31;;;3.01;82.04
75551;BME280;65071;53.082;18.218;2022-12-07T12:33:14;100153.21;;;2.96;82.02
75551;BME280;65071;53.082;18.218;2022-12-07T12:35:43;100142.96;;;2.93;82.01
75551;BME280;65071;53.082;18.218;2022-12-07T12:38:32;100143.39;;;2.97;82.21
75551;BME280;65071;53.082;18.218;2022-12-07T12:41:01;100143.39;;;2.97;82.18
75551;BME280;65071;53.082;18.218;2022-12-07T12:43:51;100144.27;;;2.94;81.94
75551;BME280;65071;53.082;18.218;2022-12-07T12:54:25;100129.29;;;3.02;82.47
75551;BME280;65071;53.082;18.218;2022-12-07T12:59:35;100124.77;;;3.01;81.94
75551;BME280;65071;53.082;18.218;2022-12-07T13:18:35;100118.09;;;3.11;82.91
75551;BME280;65071;53.082;18.218;2022-12-07T13:36:52;100118.33;;;3.01;82.78
75551;BME280;65071;53.082;18.218;2022-12-07T13:39:21;100116.45;;;3.07;83.30
75551;BME280;65071;53.082;18.218;2022-12-07T13:41:57;100120.24;;;3.06;83.33
75551;BME280;65071;53.082;18.218;2022-12-07T13:44:26;100118.06;;;3.02;83.30
75551;BME280;65071;53.082;18.218;2022-12-07T13:47:31;100120.80;;;2.97;83.09
75551;BME280;65071;53.082;18.218;2022-12-07T13:49:59;100117.77;;;2.90;82.64
75551;BME280;65071;53.082;18.218;2022-12-07T13:52:27;100116.50;;;2.86;82.56
75551;BME280;65071;53.082;18.218;2022-12-07T13:57:26;100118.63;;;2.81;82.72
75551;BME280;65071;53.082;18.218;2022-12-07T13:59:54;100121.99;;;2.77;82.97
75551;BME280;65071;53.082;18.218;2022-12-07T14:02:29;100122.48;;;2.71;83.10
75551;BME280;65071;53.082;18.218;2022-12-07T14:05:30;100126.84;;;2.65;83.01
75551;BME280;65071;53.082;18.218;2022-12-07T14:07:58;100126.31;;;2.58;83.01
75551;BME280;65071;53.082;18.218;2022-12-07T14:10:36;100126.84;;;2.63;83.10
75551;BME280;65071;53.082;18.218;2022-12-07T14:13:38;100125.89;;;2.59;83.58
75551;BME280;65071;53.082;18.218;2022-12-07T14:16:32;100128.13;;;2.53;83.29
75551;BME280;65071;53.082;18.218;2022-12-07T14:19:01;100126.85;;;2.47;83.49
75551;BME280;65071;53.082;18.218;2022-12-07T14:21:29;100128.66;;;2.46;83.36
75551;BME280;65071;53.082;18.218;2022-12-07T14:24:14;100128.39;;;2.52;83.20
75551;BME280;65071;53.082;18.218;2022-12-07T14:26:43;100129.44;;;2.50;83.44
75551;BME280;65071;53.082;18.218;2022-12-07T14:29:28;100128.66;;;2.42;83.39
75551;BME280;65071;53.082;18.218;2022-12-07T14:31:59;100131.61;;;2.36;83.59
75551;BME280;65071;53.082;18.218;2022-12-07T14:34:37;100131.20;;;2.37;83.47
75551;BME280;65071;53.082;18.218;2022-12-07T14:37:06;100126.27;;;2.40;83.50
75551;BME280;65071;53.082;18.218;2022-12-07T14:39:34;100130.55;;;2.41;83.70
75551;BME280;65071;53.082;18.218;2022-12-07T14:42:00;100131.26;;;2.40;83.76
75551;BME280;65071;53.082;18.218;2022-12-07T14:44:27;100126.86;;;2.33;83.76
75551;BME280;65071;53.082;18.218;2022-12-07T14:46:55;100125.71;;;2.30;84.32
75551;BME280;65071;53.082;18.218;2022-12-07T14:49:21;100130.00;;;2.29;84.00
75551;BME280;65071;53.082;18.218;2022-12-07T14:51:48;100132.63;;;2.36;84.28
75551;BME280;65071;53.082;18.218;2022-12-07T14:54:20;100133.23;;;2.45;83.72
75551;BME280;65071;53.082;18.218;2022-12-07T14:56:47;100133.52;;;2.43;84.07
75551;BME280;65071;53.082;18.218;2022-12-07T14:59:17;100130.65;;;2.39;84.06
75551;BME280;65071;53.082;18.218;2022-12-07T15:01:45;100131.25;;;2.38;84.05
75551;BME280;65071;53.082;18.218;2022-12-07T15:04:12;100131.92;;;2.34;83.92
75551;BME280;65071;53.082;18.218;2022-12-07T15:06:39;100125.44;;;2.33;83.84
75551;BME280;65071;53.082;18.218;2022-12-07T15:09:06;100126.58;;;2.37;84.42
75551;BME280;65071;53.082;18.218;2022-12-07T15:11:32;100124.98;;;2.37;84.05
75551;BME280;65071;53.082;18.218;2022-12-07T15:13:59;100130.48;;;2.34;84.02
75551;BME280;65071;53.082;18.218;2022-12-07T15:16:36;100130.20;;;2.27;83.94
75551;BME280;65071;53.082;18.218;2022-12-07T15:19:04;100128.50;;;2.21;84.15
75551;BME280;65071;53.082;18.218;2022-12-07T15:21:30;100131.08;;;2.22;84.12